Time;durP1;ratioP1;P1;durP2;ratioP2;P2;SDS_P1;SDS_P2;PMS_P1;PMS_P2;Temp;Humidity;BMP_temperature;BMP_pressure;BME280_temperature;BME280_humidity;BME280_pressure;Samples;Min_cycle;Max_cycle;Signal;HPM_P1;HPM_P2
2022/06/07 06:11:37;;;;;;;13.00;9.07;;;14.40;70.90;;;;;;4810939;29;20066;-82
2022/06/07 06:14:03;;;;;;;12.88;10.07;;;14.40;70.80;;;;;;4827355;29;20061;-81
2022/06/07 06:16:30;;;;;;;11.15;8.65;;;14.40;70.90;;;;;;4826419;29;20069;-83
2022/06/07 06:18:58;;;;;;;12.50;9.13;;;14.40;71.00;;;;;;4811167;29;20142;-81
2022/06/07 06:21:27;;;;;;;11.57;8.52;;;14.40;71.00;;;;;;4827399;29;20138;-82
2022/06/07 06:23:56;;;;;;;12.02;8.65;;;14.40;71.40;;;;;;4827483;29;20055;-83
2022/06/07 06:26:21;;;;;;;13.50;8.02;;;14.40;71.00;;;;;;4827865;29;20124;-82
2022/06/07 06:28:48;;;;;;;10.43;7.55;;;14.40;71.00;;;;;;4827663;29;20133;-81
2022/06/07 06:31:15;;;;;;;14.55;8.57;;;14.40;70.90;;;;;;4811624;29;20150;-82
2022/06/07 06:33:48;;;;;;;12.00;9.02;;;14.40;70.80;;;;;;4811068;29;20050;-82
2022/06/07 06:36:16;;;;;;;14.80;9.48;;;14.40;70.80;;;;;;4810007;29;20057;-82
2022/06/07 06:38:45;;;;;;;12.20;9.10;;;14.50;70.90;;;;;;4827058;29;20107;-82
2022/06/07 06:41:14;;;;;;;13.15;8.90;;;14.50;71.00;;;;;;4826958;29;20528;-82
2022/06/07 06:43:40;;;;;;;16.45;9.70;;;14.50;71.00;;;;;;4810876;29;20065;-81
2022/06/07 06:46:08;;;;;;;11.20;8.57;;;14.50;71.00;;;;;;4810693;29;20060;-81
2022/06/07 06:48:34;;;;;;;14.48;10.63;;;14.50;70.90;;;;;;4827027;29;20129;-81
2022/06/07 06:51:01;;;;;;;14.05;8.35;;;14.50;70.90;;;;;;4811053;29;20069;-81
2022/06/07 06:53:27;;;;;;;12.43;8.20;;;14.50;70.80;;;;;;4810835;29;20402;-81
2022/06/07 06:55:55;;;;;;;10.82;7.43;;;14.50;70.60;;;;;;4826846;29;20054;-80
2022/06/07 06:58:21;;;;;;;11.57;6.70;;;14.50;70.30;;;;;;4810606;29;20136;-81
2022/06/07 07:00:47;;;;;;;10.20;5.60;;;14.50;70.00;;;;;;4826942;29;20477;-81
2022/06/07 07:03:13;;;;;;;9.70;5.47;;;14.40;69.60;;;;;;4826715;29;20126;-81
2022/06/07 07:05:39;;;;;;;16.17;5.68;;;14.50;69.30;;;;;;4810390;29;20490;-81
2022/06/07 07:08:05;;;;;;;8.40;4.32;;;14.50;69.00;;;;;;4825303;29;20054;-81
2022/06/07 07:10:31;;;;;;;7.43;4.65;;;14.50;69.20;;;;;;4810291;29;20072;-81
2022/06/07 07:12:56;;;;;;;8.13;4.35;;;14.50;68.50;;;;;;4827224;29;20088;-80
2022/06/07 07:15:22;;;;;;;8.27;4.22;;;14.50;68.30;;;;;;4827931;29;20111;-81
2022/06/07 07:17:48;;;;;;;6.50;3.60;;;14.50;68.30;;;;;;4835441;29;20046;-81
2022/06/07 07:20:13;;;;;;;7.55;3.67;;;14.60;68.30;;;;;;4823893;29;20062;-81
2022/06/07 07:22:39;;;;;;;8.90;4.30;;;14.50;68.00;;;;;;4822859;29;20050;-81
2022/06/07 07:25:06;;;;;;;5.00;3.30;;;14.50;67.90;;;;;;4816798;29;20103;-81
2022/06/07 07:27:32;;;;;;;8.65;3.40;;;14.50;67.80;;;;;;4810393;29;20062;-81
2022/06/07 07:29:59;;;;;;;7.25;3.13;;;14.50;67.80;;;;;;4810025;29;20080;-81
2022/06/07 07:32:25;;;;;;;8.38;3.60;;;14.50;67.70;;;;;;4826321;29;20070;-81
2022/06/07 07:34:51;;;;;;;6.45;3.75;;;14.50;67.60;;;;;;4826507;29;20050;-80
2022/06/07 07:37:17;;;;;;;10.68;4.28;;;14.50;67.60;;;;;;4826152;29;20547;-80
2022/06/07 07:39:43;;;;;;;7.55;3.78;;;14.50;67.70;;;;;;4809829;29;20112;-81
2022/06/07 07:42:09;;;;;;;6.70;3.72;;;14.50;67.80;;;;;;4826270;29;20137;-81
2022/06/07 07:44:34;;;;;;;6.45;3.70;;;14.50;67.80;;;;;;4826237;29;20058;-81
2022/06/07 07:47:00;;;;;;;8.70;3.55;;;14.50;67.70;;;;;;4825695;29;20057;-80
2022/06/07 07:49:28;;;;;;;10.10;3.78;;;14.50;67.80;;;;;;4826250;29;20129;-81
2022/06/07 07:51:55;;;;;;;8.13;3.88;;;14.60;67.80;;;;;;4825887;29;20507;-80
2022/06/07 07:54:22;;;;;;;8.98;3.75;;;14.60;67.60;;;;;;4809584;29;20388;-81
2022/06/07 07:56:48;;;;;;;7.03;4.57;;;14.60;67.70;;;;;;4825819;29;20054;-82
2022/06/07 07:59:19;;;;;;;9.55;3.97;;;14.60;67.70;;;;;;4825946;29;20058;-82
2022/06/07 08:01:45;;;;;;;8.13;4.45;;;14.60;67.80;;;;;;4825983;29;20127;-82
2022/06/07 08:04:11;;;;;;;8.82;4.40;;;14.60;67.90;;;;;;4825852;29;20059;-82
2022/06/07 08:06:38;;;;;;;6.78;4.00;;;14.70;68.00;;;;;;4794257;29;20494;-82
2022/06/07 08:09:08;;;;;;;9.80;4.75;;;14.70;68.10;;;;;;4825427;29;20066;-82
2022/06/07 08:11:37;;;;;;;8.32;4.95;;;14.70;68.30;;;;;;4825805;29;20594;-82
2022/06/07 08:14:06;;;;;;;7.65;4.57;;;14.60;68.30;;;;;;4825640;29;20095;-83
2022/06/07 08:16:32;;;;;;;11.65;5.30;;;14.70;68.60;;;;;;4808412;29;20062;-82
2022/06/07 08:18:58;;;;;;;8.73;5.32;;;14.70;68.60;;;;;;4809219;29;20066;-82
2022/06/07 08:21:26;;;;;;;8.40;5.20;;;14.70;68.80;;;;;;4825607;29;20124;-81
2022/06/07 08:23:53;;;;;;;8.77;5.45;;;14.70;68.90;;;;;;4809170;29;20058;-82
2022/06/07 08:26:19;;;;;;;8.95;5.45;;;14.70;68.80;;;;;;4809261;29;20062;-82
2022/06/07 08:28:45;;;;;;;9.50;4.95;;;14.70;68.90;;;;;;4825625;29;20050;-83
2022/06/07 08:31:18;;;;;;;7.03;4.82;;;14.70;68.80;;;;;;4825317;29;20441;-82
2022/06/07 08:39:13;;;;;;;11.30;5.13;;;14.80;68.80;;;;;;4825243;29;20058;-82
2022/06/07 08:41:50;;;;;;;7.45;4.57;;;14.80;68.70;;;;;;4808943;29;20070;-82
2022/06/07 08:44:45;;;;;;;8.98;4.43;;;14.80;68.70;;;;;;4825374;29;20067;-81
2022/06/07 08:47:30;;;;;;;11.15;5.22;;;14.80;68.50;;;;;;4747087;30;20076;-82
2022/06/07 08:49:59;;;;;;;10.50;4.78;;;14.80;68.60;;;;;;4740895;30;20068;-81
2022/06/07 08:52:29;;;;;;;8.43;4.85;;;14.80;68.80;;;;;;4741904;30;20158;-82
2022/06/07 08:55:02;;;;;;;9.70;5.07;;;14.80;68.90;;;;;;4744170;30;20091;-81
2022/06/07 08:57:36;;;;;;;9.00;5.00;;;14.80;69.00;;;;;;4729236;30;20059;-82
2022/06/07 09:00:22;;;;;;;11.05;5.60;;;14.70;68.90;;;;;;4725315;30;20060;-80
2022/06/07 09:03:05;;;;;;;9.05;5.88;;;14.80;69.00;;;;;;4740292;30;20067;-90
2022/06/07 09:05:31;;;;;;;10.73;5.65;;;14.80;69.20;;;;;;4725614;30;20064;-91
2022/06/07 09:07:58;;;;;;;8.00;4.97;;;14.80;69.40;;;;;;4740130;30;20409;-90
2022/06/07 09:13:16;;;;;;;10.73;5.00;;;14.70;69.70;;;;;;4742611;30;20087;-93
2022/06/07 09:15:46;;;;;;;9.55;5.40;;;14.70;69.90;;;;;;4728047;30;20064;-92
2022/06/07 09:18:15;;;;;;;11.05;5.30;;;14.70;70.00;;;;;;4711896;30;20076;-91
2022/06/07 09:20:49;;;;;;;12.40;5.80;;;14.70;70.80;;;;;;4758009;30;20052;-90
2022/06/07 09:23:36;;;;;;;8.50;5.40;;;14.70;70.60;;;;;;4763926;29;20057;-92
2022/06/07 09:26:27;;;;;;;9.98;4.90;;;14.70;70.80;;;;;;4804855;29;20069;-82
2022/06/07 09:29:21;;;;;;;12.10;4.97;;;14.60;70.90;;;;;;4824763;29;20062;-83
2022/06/07 09:31:48;;;;;;;7.50;4.68;;;14.60;71.10;;;;;;4822980;29;20047;-83
2022/06/07 09:34:23;;;;;;;7.60;4.18;;;14.50;71.10;;;;;;4823944;29;20054;-81
2022/06/07 09:36:56;;;;;;;7.93;4.00;;;14.60;71.30;;;;;;4824210;29;20123;-84
2022/06/07 09:39:32;;;;;;;12.73;4.65;;;14.60;71.30;;;;;;4819267;29;20089;-83
2022/06/07 09:42:26;;;;;;;6.97;3.47;;;14.60;71.30;;;;;;4810042;29;20061;-83
2022/06/07 09:44:54;;;;;;;6.00;3.20;;;14.60;71.60;;;;;;4822468;29;20156;-83
2022/06/07 09:47:23;;;;;;;8.60;3.28;;;14.60;71.30;;;;;;4800980;29;20503;-81
2022/06/07 09:49:55;;;;;;;8.52;3.13;;;14.50;71.30;;;;;;4817421;29;20505;-82
2022/06/07 09:52:31;;;;;;;4.68;2.95;;;14.50;71.30;;;;;;4817986;29;20085;-81
2022/06/07 09:55:13;;;;;;;6.10;3.40;;;14.50;71.30;;;;;;4804241;29;20065;-82
2022/06/07 09:57:52;;;;;;;7.43;2.75;;;14.50;71.30;;;;;;4789348;29;20082;-81
2022/06/07 10:00:32;;;;;;;6.72;2.70;;;14.50;71.30;;;;;;4815702;29;20154;-81
2022/06/07 10:03:32;;;;;;;5.22;2.22;;;14.50;71.20;;;;;;4794055;29;20054;-80
2022/06/07 10:06:21;;;;;;;5.32;2.78;;;14.60;71.30;;;;;;4814528;29;20070;-81
2022/06/07 10:08:55;;;;;;;3.35;2.10;;;14.60;71.40;;;;;;4799336;29;20058;-82
2022/06/07 10:12:00;;;;;;;5.15;1.83;;;14.70;71.70;;;;;;4820151;29;20065;-83
2022/06/07 10:14:54;;;;;;;4.55;1.92;;;14.60;71.70;;;;;;4823304;29;20058;-82
2022/06/07 10:17:40;;;;;;;4.78;1.80;;;14.60;71.70;;;;;;4804496;29;20154;-82
2022/06/07 10:20:27;;;;;;;5.75;1.77;;;14.60;71.70;;;;;;4800414;29;20073;-83
2022/06/07 10:23:27;;;;;;;2.92;1.42;;;14.60;71.90;;;;;;4806274;29;20069;-83
2022/06/07 10:25:59;;;;;;;3.97;1.63;;;14.60;71.80;;;;;;4806762;29;20069;-80
2022/06/07 10:28:34;;;;;;;1.85;1.15;;;14.60;71.70;;;;;;4806995;29;20054;-83
2022/06/07 10:31:37;;;;;;;4.05;1.70;;;14.60;71.80;;;;;;4823024;29;20597;-80
2022/06/07 10:34:40;;;;;;;3.67;1.10;;;14.70;71.80;;;;;;4722143;30;20102;-83
2022/06/07 10:37:17;;;;;;;4.43;1.35;;;14.70;71.80;;;;;;4726188;30;20067;-83
2022/06/07 10:39:58;;;;;;;1.88;0.75;;;14.70;71.80;;;;;;4735761;30;20064;-82
2022/06/07 10:42:29;;;;;;;4.82;1.30;;;14.70;71.90;;;;;;4746312;30;20052;-83
2022/06/07 10:45:27;;;;;;;3.35;0.98;;;14.70;72.00;;;;;;4734227;30;20144;-83
2022/06/07 10:48:04;;;;;;;4.10;1.02;;;14.70;71.90;;;;;;4681297;30;20093;-83
2022/06/07 10:50:41;;;;;;;1.88;1.00;;;14.60;71.90;;;;;;4682133;30;20085;-82
2022/06/07 10:53:33;;;;;;;2.90;1.20;;;14.70;72.00;;;;;;4696472;30;20074;-83
2022/06/07 10:56:10;;;;;;;3.17;0.95;;;14.70;71.90;;;;;;4682273;30;20065;-83
2022/06/07 10:58:40;;;;;;;2.45;0.90;;;14.70;72.00;;;;;;4679828;30;20617;-82
2022/06/07 11:01:25;;;;;;;2.45;0.90;;;14.70;71.90;;;;;;4664768;30;20087;-83
2022/06/07 11:09:19;;;;;;;2.30;0.80;;;14.70;71.80;;;;;;4664978;30;20134;-85
2022/06/07 11:10:03;;;;;;;4.38;1.10;;;14.60;71.80;;;;;;4695527;30;20061;-84
2022/06/07 11:12:55;;;;;;;1.73;0.63;;;14.70;72.30;;;;;;4751160;30;20142;-84
2022/06/07 11:15:32;;;;;;;1.92;0.65;;;14.70;71.90;;;;;;4766175;30;20396;-84
2022/06/07 11:17:57;;;;;;;2.25;0.73;;;14.70;71.90;;;;;;4750033;30;20055;-84
2022/06/07 11:20:28;;;;;;;2.33;0.90;;;14.70;71.90;;;;;;4751106;30;20060;-83
2022/06/07 11:23:11;;;;;;;2.08;0.70;;;14.70;71.90;;;;;;4765782;30;20052;-84
2022/06/07 11:26:08;;;;;;;5.57;1.00;;;14.70;71.90;;;;;;4822271;29;20074;-84
2022/06/07 11:28:44;;;;;;;3.42;1.08;;;14.70;72.10;;;;;;4822129;29;20069;-84
2022/06/07 11:31:40;;;;;;;2.55;0.90;;;14.60;72.20;;;;;;4806217;29;20149;-85
2022/06/07 11:34:22;;;;;;;4.03;0.80;;;14.60;72.20;;;;;;4821519;29;20061;-84
2022/06/07 11:36:50;;;;;;;3.42;1.35;;;14.70;72.20;;;;;;4822294;29;20525;-84
2022/06/07 11:39:50;;;;;;;4.00;1.02;;;14.60;72.30;;;;;;4821648;29;20092;-82
2022/06/07 11:42:29;;;;;;;4.50;1.52;;;14.60;72.20;;;;;;4821776;29;20133;-84
2022/06/07 11:45:16;;;;;;;3.35;1.38;;;14.60;72.30;;;;;;4822119;29;20062;-83
2022/06/07 11:47:45;;;;;;;2.50;1.27;;;14.60;72.30;;;;;;4820825;29;20067;-84
2022/06/07 11:50:25;;;;;;;2.95;1.35;;;14.60;72.30;;;;;;4805416;29;20108;-84
2022/06/07 11:52:57;;;;;;;4.30;2.17;;;14.70;72.50;;;;;;4805817;29;20067;-84
2022/06/07 11:55:26;;;;;;;5.70;1.98;;;14.60;72.50;;;;;;4822156;29;20061;-85
2022/06/07 11:58:03;;;;;;;3.38;1.58;;;14.70;72.50;;;;;;4821766;29;20487;-84
2022/06/07 12:00:29;;;;;;;5.22;2.30;;;14.60;72.60;;;;;;4821297;29;20051;-83
2022/06/07 12:02:57;;;;;;;7.30;1.65;;;14.60;72.40;;;;;;4822240;29;20510;-85
2022/06/07 12:05:32;;;;;;;11.45;2.58;;;14.50;72.30;;;;;;4821440;29;20065;-82
2022/06/07 12:08:14;;;;;;;6.50;2.00;;;14.60;72.40;;;;;;4821430;29;20097;-84
2022/06/07 12:10:54;;;;;;;4.85;1.90;;;14.50;72.10;;;;;;4820123;29;20069;-82
2022/06/07 12:13:49;;;;;;;7.90;2.20;;;14.50;72.10;;;;;;4805184;29;20062;-83
2022/06/07 12:16:20;;;;;;;6.43;2.10;;;14.50;72.00;;;;;;4804830;29;20077;-84
2022/06/07 12:18:54;;;;;;;5.82;2.50;;;14.50;72.00;;;;;;4803917;29;20098;-83
2022/06/07 12:21:21;;;;;;;6.15;2.55;;;14.50;72.00;;;;;;4821344;29;20175;-84
2022/06/07 12:23:52;;;;;;;6.40;2.42;;;14.50;72.00;;;;;;4821298;29;20509;-82
2022/06/07 12:26:20;;;;;;;5.20;1.80;;;14.50;71.90;;;;;;4821436;29;20483;-84
2022/06/07 12:28:52;;;;;;;6.85;2.00;;;14.50;71.90;;;;;;4805092;29;20077;-85
2022/06/07 12:31:24;;;;;;;5.95;2.47;;;14.60;72.00;;;;;;4820328;29;20059;-84
2022/06/07 12:33:52;;;;;;;7.45;2.83;;;14.60;72.00;;;;;;4820981;29;20119;-84
2022/06/07 12:36:22;;;;;;;8.77;3.33;;;14.60;72.00;;;;;;4821700;29;20054;-86
2022/06/07 12:38:49;;;;;;;7.18;2.42;;;14.60;72.10;;;;;;4800024;29;20090;-84
2022/06/07 12:41:19;;;;;;;9.60;3.33;;;14.60;72.10;;;;;;4805096;29;20058;-84
2022/06/07 12:43:48;;;;;;;10.75;3.22;;;14.60;72.10;;;;;;4820319;29;20062;-85
2022/06/07 12:46:24;;;;;;;8.02;3.30;;;14.70;72.20;;;;;;4804763;29;20054;-84
2022/06/07 12:48:51;;;;;;;12.80;4.05;;;14.60;72.10;;;;;;4805035;29;20399;-81
2022/06/07 12:51:34;;;;;;;9.02;4.15;;;14.60;72.30;;;;;;4820790;29;20410;-84
2022/06/07 12:54:18;;;;;;;8.90;3.22;;;14.60;72.40;;;;;;4820975;29;20073;-83
2022/06/07 12:56:46;;;;;;;12.98;4.70;;;14.60;72.50;;;;;;4805031;29;20073;-82
2022/06/07 12:59:27;;;;;;;10.15;4.70;;;14.70;72.60;;;;;;4824912;29;20062;-84
2022/06/07 13:01:53;;;;;;;14.98;4.85;;;14.60;72.80;;;;;;4828594;29;20159;-80
2022/06/07 13:04:31;;;;;;;11.15;4.50;;;14.60;72.90;;;;;;4832952;29;20089;-81
2022/06/07 13:07:12;;;;;;;10.93;4.93;;;14.60;73.10;;;;;;4832864;29;20146;-82
2022/06/07 13:09:39;;;;;;;12.88;5.22;;;14.60;73.20;;;;;;4830152;29;20109;-82
2022/06/07 13:12:05;;;;;;;10.43;5.30;;;14.60;73.30;;;;;;4826142;29;20137;-82
2022/06/07 13:14:31;;;;;;;14.60;5.60;;;14.60;73.40;;;;;;4809351;29;20453;-82
2022/06/07 13:17:12;;;;;;;12.68;5.22;;;14.60;73.60;;;;;;4808748;29;20054;-82
2022/06/07 13:19:45;;;;;;;12.02;5.22;;;14.60;73.80;;;;;;4824924;29;20062;-79
2022/06/07 13:22:15;;;;;;;12.65;5.40;;;14.70;74.00;;;;;;4808450;29;20099;-81
2022/06/07 13:24:44;;;;;;;8.32;5.05;;;14.70;74.00;;;;;;4824897;29;20050;-82
2022/06/07 13:27:36;;;;;;;11.32;5.78;;;14.70;73.90;;;;;;4807695;29;20411;-82
2022/06/07 13:30:03;;;;;;;16.02;6.25;;;14.70;73.80;;;;;;4808684;29;20062;-80
2022/06/07 13:32:29;;;;;;;14.82;6.22;;;14.70;73.90;;;;;;4792840;29;20062;-82
2022/06/07 13:34:58;;;;;;;9.85;5.20;;;14.70;73.90;;;;;;4824169;29;20061;-81
2022/06/07 13:37:29;;;;;;;11.43;5.90;;;14.80;74.00;;;;;;4820266;29;20058;-80
2022/06/07 13:39:57;;;;;;;12.25;5.70;;;14.80;74.00;;;;;;4820331;29;20061;-81
2022/06/07 13:42:26;;;;;;;15.10;6.32;;;14.90;73.90;;;;;;4820354;29;20084;-81
2022/06/07 13:44:57;;;;;;;12.10;5.30;;;14.90;73.90;;;;;;4821920;29;20062;-82
2022/06/07 13:47:31;;;;;;;12.23;6.03;;;14.90;73.90;;;;;;4823968;29;20062;-82
2022/06/07 13:55:55;;;;;;;13.70;6.80;;;15.10;74.00;;;;;;4823945;29;20062;-82
2022/06/07 13:58:23;;;;;;;14.13;6.78;;;15.10;73.80;;;;;;4807207;29;20066;-79
2022/06/07 14:00:50;;;;;;;9.77;6.18;;;15.10;73.90;;;;;;4792784;29;20104;-81
2022/06/07 14:03:32;;;;;;;11.88;6.35;;;15.20;73.70;;;;;;4823836;29;20066;-81
2022/06/07 14:05:59;;;;;;;11.90;6.05;;;15.20;73.50;;;;;;4806694;29;20046;-82
2022/06/07 14:08:25;;;;;;;12.85;6.85;;;15.30;73.60;;;;;;4823053;29;20268;-82
2022/06/07 14:10:50;;;;;;;14.90;6.05;;;15.30;73.50;;;;;;4823830;29;20438;-81
2022/06/07 14:13:18;;;;;;;10.25;5.82;;;15.40;73.40;;;;;;4823769;29;20406;-81
2022/06/07 14:15:45;;;;;;;11.15;6.25;;;15.40;73.20;;;;;;4806939;29;20101;-80
2022/06/07 14:18:14;;;;;;;10.93;6.20;;;15.50;73.10;;;;;;4823415;29;20065;-80
2022/06/07 14:20:40;;;;;;;14.05;5.97;;;15.50;73.00;;;;;;4823322;29;20099;-80
2022/06/07 14:23:13;;;;;;;10.52;5.03;;;15.50;72.80;;;;;;4807089;29;20396;-81
2022/06/07 14:25:39;;;;;;;13.75;6.22;;;15.60;72.50;;;;;;4823161;29;20054;-81
2022/06/07 14:28:10;;;;;;;10.57;5.38;;;15.60;72.50;;;;;;4823340;29;20063;-81
2022/06/07 14:30:36;;;;;;;10.52;5.40;;;15.70;72.60;;;;;;4822244;29;20094;-82
2022/06/07 14:33:03;;;;;;;11.25;5.68;;;15.70;72.40;;;;;;4807094;29;20058;-82
2022/06/07 14:35:33;;;;;;;12.85;5.68;;;15.80;72.30;;;;;;4805949;29;20640;-81
2022/06/07 14:38:00;;;;;;;12.80;4.93;;;15.80;72.10;;;;;;4820626;29;20055;-81
2022/06/07 14:40:36;;;;;;;10.45;5.95;;;15.90;72.20;;;;;;4822919;29;20057;-80
2022/06/07 14:43:03;;;;;;;9.43;5.03;;;16.00;72.20;;;;;;4822376;29;20398;-80
2022/06/07 14:45:53;;;;;;;11.18;5.03;;;16.10;72.00;;;;;;4823479;29;20111;-80
2022/06/07 14:48:41;;;;;;;7.97;5.13;;;16.10;71.30;;;;;;4805613;29;20123;-81
2022/06/07 14:51:23;;;;;;;9.57;4.90;;;16.10;71.30;;;;;;4805866;29;20075;-81
2022/06/07 14:53:51;;;;;;;9.82;5.00;;;16.20;71.30;;;;;;4822988;29;20066;-80
2022/06/07 14:56:20;;;;;;;10.23;4.55;;;16.20;70.90;;;;;;4822037;29;20051;-80
2022/06/07 14:58:48;;;;;;;7.22;4.50;;;16.40;70.50;;;;;;4806226;29;20137;-81
2022/06/07 15:01:41;;;;;;;8.02;3.85;;;16.30;70.30;;;;;;4822522;29;20097;-81
2022/06/07 15:04:13;;;;;;;10.15;5.50;;;16.40;70.20;;;;;;4819768;29;20058;-82
2022/06/07 15:06:40;;;;;;;7.70;4.55;;;16.50;70.60;;;;;;4821699;29;20058;-84
2022/06/07 15:09:14;;;;;;;10.10;5.50;;;16.40;70.50;;;;;;4820713;29;20062;-82
2022/06/07 15:11:39;;;;;;;11.55;5.43;;;16.40;70.70;;;;;;4821110;29;20637;-84
2022/06/07 15:14:05;;;;;;;9.57;4.93;;;16.50;70.80;;;;;;4805118;29;20133;-82
2022/06/07 15:16:34;;;;;;;9.32;4.80;;;16.60;70.80;;;;;;4820815;29;20054;-83
2022/06/07 15:19:01;;;;;;;7.90;5.40;;;16.70;70.60;;;;;;4822384;29;20058;-83
2022/06/07 15:21:28;;;;;;;8.50;5.10;;;16.70;70.20;;;;;;4821606;29;20080;-83
2022/06/07 15:23:54;;;;;;;9.52;5.07;;;16.80;70.10;;;;;;4820887;29;20396;-83
2022/06/07 15:26:23;;;;;;;8.57;5.38;;;16.90;70.00;;;;;;4826090;29;20057;-83
2022/06/07 15:28:49;;;;;;;10.48;5.55;;;16.90;69.70;;;;;;4825730;29;20499;-84
2022/06/07 15:31:22;;;;;;;8.63;5.13;;;16.90;69.40;;;;;;4809394;29;20065;-85
2022/06/07 15:33:52;;;;;;;7.32;5.05;;;17.00;68.80;;;;;;4797109;29;20081;-88
2022/06/07 15:36:18;;;;;;;9.93;5.38;;;17.00;68.80;;;;;;4791234;29;20058;-90
